KMXO/MXO METAR and TAF weather

Enter ICAO airport designator
Station Type Date Time Source
KMXO METAR 2021/09/28 16:15 UTC NOAA

KMXO 281615Z AUTO 11005G11KT 10SM CLR 22/15 A2999 RMK AO2


Station Type Date Time Source
KMXO Decoded METAR 2021/09/28 16:15 UTC NOAA

Monticello Municipal, IA, United States (KMXO) 42-14N 091-10W
Sep 28, 2021 - 12:15 PM EDT / 2021.09.28 1615 UTC
Wind: from the ESE (110 degrees) at 6 MPH (5 KT) gusting to 13 MPH (11 KT):0
Visibility: 10 mile(s):0
Sky conditions: clear
Temperature: 71 F (22 C)
Dew Point: 59 F (15 C)
Relative Humidity: 64%
Pressure (altimeter): 29.99 in. Hg (1015 hPa)
ob: KMXO 281615Z AUTO 11005G11KT 10SM CLR 22/15 A2999 RMK AO2
cycle: 16

Station Type Date Time Source
KMXO TAF UTC NOAA

Error!

Example: see airport list